sensor_id;sensor_type;location;lat;lon;timestamp;P1;durP1;ratioP1;P2;durP2;ratioP2
55218;SDS011;41088;44.012;20.902;2022-08-19T00:01:36;12.48;;;5.18;;
55218;SDS011;41088;44.012;20.902;2022-08-19T00:04:06;11.40;;;5.28;;
55218;SDS011;41088;44.012;20.902;2022-08-19T00:06:34;10.00;;;5.30;;
55218;SDS011;41088;44.012;20.902;2022-08-19T00:09:06;11.73;;;5.45;;
55218;SDS011;41088;44.012;20.902;2022-08-19T00:11:33;10.48;;;5.30;;
55218;SDS011;41088;44.012;20.902;2022-08-19T00:14:03;9.82;;;5.10;;
55218;SDS011;41088;44.012;20.902;2022-08-19T00:16:35;8.05;;;4.93;;
55218;SDS011;41088;44.012;20.902;2022-08-19T00:19:02;7.80;;;4.75;;
55218;SDS011;41088;44.012;20.902;2022-08-19T00:21:29;7.22;;;4.47;;
55218;SDS011;41088;44.012;20.902;2022-08-19T00:23:56;12.75;;;4.82;;
55218;SDS011;41088;44.012;20.902;2022-08-19T00:26:27;7.25;;;4.82;;
55218;SDS011;41088;44.012;20.902;2022-08-19T00:28:53;9.13;;;4.53;;
55218;SDS011;41088;44.012;20.902;2022-08-19T00:31:20;8.65;;;5.00;;
55218;SDS011;41088;44.012;20.902;2022-08-19T00:33:46;9.90;;;4.97;;
55218;SDS011;41088;44.012;20.902;2022-08-19T00:36:15;12.75;;;5.53;;
55218;SDS011;41088;44.012;20.902;2022-08-19T00:38:45;7.07;;;4.65;;
55218;SDS011;41088;44.012;20.902;2022-08-19T00:41:15;7.68;;;4.75;;
55218;SDS011;41088;44.012;20.902;2022-08-19T00:43:56;7.28;;;4.72;;
55218;SDS011;41088;44.012;20.902;2022-08-19T00:46:23;11.07;;;4.20;;
55218;SDS011;41088;44.012;20.902;2022-08-19T00:48:49;8.43;;;4.03;;
55218;SDS011;41088;44.012;20.902;2022-08-19T00:51:15;7.50;;;4.10;;
55218;SDS011;41088;44.012;20.902;2022-08-19T00:53:41;10.23;;;4.60;;
55218;SDS011;41088;44.012;20.902;2022-08-19T00:56:08;7.82;;;4.25;;
55218;SDS011;41088;44.012;20.902;2022-08-19T00:58:35;9.95;;;4.72;;
55218;SDS011;41088;44.012;20.902;2022-08-19T01:01:02;9.95;;;4.53;;
55218;SDS011;41088;44.012;20.902;2022-08-19T01:03:32;11.23;;;4.65;;
55218;SDS011;41088;44.012;20.902;2022-08-19T01:05:58;9.77;;;4.63;;
55218;SDS011;41088;44.012;20.902;2022-08-19T01:08:27;9.07;;;5.10;;
55218;SDS011;41088;44.012;20.902;2022-08-19T01:10:55;11.25;;;5.45;;
55218;SDS011;41088;44.012;20.902;2022-08-19T01:13:24;10.18;;;5.35;;
55218;SDS011;41088;44.012;20.902;2022-08-19T01:18:21;7.55;;;5.32;;
55218;SDS011;41088;44.012;20.902;2022-08-19T01:20:48;8.48;;;5.20;;
55218;SDS011;41088;44.012;20.902;2022-08-19T01:23:16;10.02;;;5.03;;
55218;SDS011;41088;44.012;20.902;2022-08-19T01:25:47;9.05;;;4.50;;
55218;SDS011;41088;44.012;20.902;2022-08-19T01:28:25;9.52;;;4.43;;
55218;SDS011;41088;44.012;20.902;2022-08-19T01:30:53;10.80;;;4.05;;
55218;SDS011;41088;44.012;20.902;2022-08-19T01:33:20;8.23;;;4.38;;
55218;SDS011;41088;44.012;20.902;2022-08-19T01:35:46;13.77;;;4.22;;
55218;SDS011;41088;44.012;20.902;2022-08-19T01:38:23;6.80;;;4.03;;
55218;SDS011;41088;44.012;20.902;2022-08-19T01:40:51;7.75;;;4.60;;
55218;SDS011;41088;44.012;20.902;2022-08-19T01:43:18;10.18;;;4.50;;
55218;SDS011;41088;44.012;20.902;2022-08-19T01:48:34;10.25;;;4.40;;
55218;SDS011;41088;44.012;20.902;2022-08-19T01:51:01;8.63;;;4.05;;
55218;SDS011;41088;44.012;20.902;2022-08-19T01:53:28;8.48;;;4.45;;
55218;SDS011;41088;44.012;20.902;2022-08-19T01:55:55;7.25;;;4.03;;
55218;SDS011;41088;44.012;20.902;2022-08-19T01:58:22;7.35;;;4.15;;
55218;SDS011;41088;44.012;20.902;2022-08-19T02:00:50;6.68;;;3.72;;
55218;SDS011;41088;44.012;20.902;2022-08-19T02:03:16;6.10;;;3.90;;
55218;SDS011;41088;44.012;20.902;2022-08-19T02:05:43;7.13;;;3.90;;
55218;SDS011;41088;44.012;20.902;2022-08-19T02:08:09;6.47;;;3.65;;
55218;SDS011;41088;44.012;20.902;2022-08-19T02:10:38;8.82;;;3.95;;
55218;SDS011;41088;44.012;20.902;2022-08-19T02:13:06;7.43;;;4.00;;
55218;SDS011;41088;44.012;20.902;2022-08-19T02:15:32;7.28;;;4.30;;
55218;SDS011;41088;44.012;20.902;2022-08-19T02:17:59;5.03;;;3.80;;
55218;SDS011;41088;44.012;20.902;2022-08-19T02:20:25;9.30;;;4.18;;
55218;SDS011;41088;44.012;20.902;2022-08-19T02:22:52;11.20;;;4.10;;
55218;SDS011;41088;44.012;20.902;2022-08-19T02:25:18;10.80;;;4.55;;
55218;SDS011;41088;44.012;20.902;2022-08-19T02:27:44;10.07;;;4.20;;
55218;SDS011;41088;44.012;20.902;2022-08-19T02:30:12;9.38;;;4.50;;
55218;SDS011;41088;44.012;20.902;2022-08-19T02:32:39;11.20;;;4.32;;
55218;SDS011;41088;44.012;20.902;2022-08-19T02:35:05;9.07;;;4.03;;
55218;SDS011;41088;44.012;20.902;2022-08-19T02:37:32;13.40;;;4.90;;
55218;SDS011;41088;44.012;20.902;2022-08-19T02:40:17;9.07;;;4.35;;
55218;SDS011;41088;44.012;20.902;2022-08-19T02:42:44;9.98;;;5.13;;
55218;SDS011;41088;44.012;20.902;2022-08-19T02:45:11;8.68;;;4.82;;
55218;SDS011;41088;44.012;20.902;2022-08-19T02:47:38;10.85;;;5.13;;
55218;SDS011;41088;44.012;20.902;2022-08-19T02:50:04;8.18;;;4.88;;
55218;SDS011;41088;44.012;20.902;2022-08-19T02:52:31;8.77;;;5.00;;
55218;SDS011;41088;44.012;20.902;2022-08-19T02:54:58;9.45;;;5.20;;
55218;SDS011;41088;44.012;20.902;2022-08-19T02:57:27;12.63;;;5.10;;
55218;SDS011;41088;44.012;20.902;2022-08-19T02:59:56;9.57;;;5.15;;
55218;SDS011;41088;44.012;20.902;2022-08-19T03:02:22;8.95;;;5.18;;
55218;SDS011;41088;44.012;20.902;2022-08-19T03:04:49;8.52;;;4.88;;
55218;SDS011;41088;44.012;20.902;2022-08-19T03:07:16;9.90;;;5.13;;
55218;SDS011;41088;44.012;20.902;2022-08-19T03:09:43;11.50;;;5.10;;
55218;SDS011;41088;44.012;20.902;2022-08-19T03:12:10;7.60;;;4.60;;
55218;SDS011;41088;44.012;20.902;2022-08-19T03:14:36;9.40;;;5.32;;
55218;SDS011;41088;44.012;20.902;2022-08-19T03:17:03;7.22;;;4.72;;
55218;SDS011;41088;44.012;20.902;2022-08-19T03:19:29;7.53;;;4.90;;
55218;SDS011;41088;44.012;20.902;2022-08-19T03:21:56;8.43;;;4.88;;
55218;SDS011;41088;44.012;20.902;2022-08-19T03:24:23;8.93;;;4.90;;
55218;SDS011;41088;44.012;20.902;2022-08-19T03:26:53;9.10;;;5.22;;
55218;SDS011;41088;44.012;20.902;2022-08-19T03:29:25;12.70;;;5.57;;
55218;SDS011;41088;44.012;20.902;2022-08-19T03:31:52;10.70;;;5.50;;
55218;SDS011;41088;44.012;20.902;2022-08-19T03:34:26;10.77;;;5.45;;
55218;SDS011;41088;44.012;20.902;2022-08-19T03:36:55;11.07;;;5.30;;
55218;SDS011;41088;44.012;20.902;2022-08-19T03:39:23;12.27;;;5.85;;
55218;SDS011;41088;44.012;20.902;2022-08-19T03:41:52;11.38;;;5.60;;
55218;SDS011;41088;44.012;20.902;2022-08-19T03:44:22;11.65;;;5.25;;
55218;SDS011;41088;44.012;20.902;2022-08-19T03:46:55;11.13;;;5.20;;
55218;SDS011;41088;44.012;20.902;2022-08-19T03:49:24;13.75;;;5.55;;
55218;SDS011;41088;44.012;20.902;2022-08-19T03:51:53;11.90;;;5.68;;
55218;SDS011;41088;44.012;20.902;2022-08-19T03:54:20;13.32;;;5.78;;
55218;SDS011;41088;44.012;20.902;2022-08-19T03:56:50;11.13;;;4.95;;
55218;SDS011;41088;44.012;20.902;2022-08-19T03:59:21;11.10;;;4.97;;
55218;SDS011;41088;44.012;20.902;2022-08-19T04:01:50;11.82;;;5.30;;
55218;SDS011;41088;44.012;20.902;2022-08-19T04:04:17;10.38;;;4.78;;
55218;SDS011;41088;44.012;20.902;2022-08-19T04:06:43;9.40;;;4.80;;
55218;SDS011;41088;44.012;20.902;2022-08-19T04:09:09;7.72;;;4.68;;
55218;SDS011;41088;44.012;20.902;2022-08-19T04:11:39;9.43;;;4.82;;
55218;SDS011;41088;44.012;20.902;2022-08-19T04:14:07;8.63;;;4.72;;
55218;SDS011;41088;44.012;20.902;2022-08-19T04:16:35;9.93;;;4.65;;
55218;SDS011;41088;44.012;20.902;2022-08-19T04:19:02;8.65;;;4.68;;
55218;SDS011;41088;44.012;20.902;2022-08-19T04:21:29;9.93;;;4.85;;
55218;SDS011;41088;44.012;20.902;2022-08-19T04:23:56;12.43;;;5.18;;
55218;SDS011;41088;44.012;20.902;2022-08-19T04:26:23;10.32;;;5.20;;
55218;SDS011;41088;44.012;20.902;2022-08-19T04:28:52;13.70;;;5.88;;
55218;SDS011;41088;44.012;20.902;2022-08-19T04:31:23;11.45;;;5.60;;
55218;SDS011;41088;44.012;20.902;2022-08-19T04:37:17;14.00;;;5.35;;
55218;SDS011;41088;44.012;20.902;2022-08-19T04:39:50;9.45;;;5.43;;
55218;SDS011;41088;44.012;20.902;2022-08-19T04:42:34;9.70;;;5.20;;
55218;SDS011;41088;44.012;20.902;2022-08-19T04:45:07;11.23;;;5.35;;
55218;SDS011;41088;44.012;20.902;2022-08-19T04:47:35;9.32;;;5.45;;
55218;SDS011;41088;44.012;20.902;2022-08-19T04:50:02;14.05;;;5.28;;
55218;SDS011;41088;44.012;20.902;2022-08-19T04:52:29;11.57;;;5.07;;
55218;SDS011;41088;44.012;20.902;2022-08-19T04:54:56;14.80;;;5.32;;
55218;SDS011;41088;44.012;20.902;2022-08-19T04:57:22;10.45;;;5.90;;
55218;SDS011;41088;44.012;20.902;2022-08-19T04:59:48;11.13;;;5.30;;
55218;SDS011;41088;44.012;20.902;2022-08-19T05:02:18;10.27;;;4.75;;
55218;SDS011;41088;44.012;20.902;2022-08-19T05:04:44;9.90;;;4.60;;
55218;SDS011;41088;44.012;20.902;2022-08-19T05:07:10;10.60;;;4.47;;
55218;SDS011;41088;44.012;20.902;2022-08-19T05:09:44;11.93;;;4.35;;
55218;SDS011;41088;44.012;20.902;2022-08-19T05:12:13;8.48;;;4.30;;
55218;SDS011;41088;44.012;20.902;2022-08-19T05:14:39;16.48;;;4.72;;
55218;SDS011;41088;44.012;20.902;2022-08-19T05:17:05;9.05;;;4.72;;
55218;SDS011;41088;44.012;20.902;2022-08-19T05:19:34;18.20;;;4.75;;
55218;SDS011;41088;44.012;20.902;2022-08-19T05:22:25;8.48;;;4.60;;
55218;SDS011;41088;44.012;20.902;2022-08-19T05:25:01;8.70;;;4.68;;
55218;SDS011;41088;44.012;20.902;2022-08-19T05:27:35;9.90;;;4.50;;
55218;SDS011;41088;44.012;20.902;2022-08-19T05:30:05;8.93;;;4.07;;
55218;SDS011;41088;44.012;20.902;2022-08-19T05:32:31;9.15;;;4.38;;
55218;SDS011;41088;44.012;20.902;2022-08-19T05:34:57;9.57;;;4.85;;
55218;SDS011;41088;44.012;20.902;2022-08-19T05:37:23;8.73;;;4.85;;
55218;SDS011;41088;44.012;20.902;2022-08-19T05:39:52;9.13;;;4.63;;
55218;SDS011;41088;44.012;20.902;2022-08-19T05:42:25;9.32;;;4.88;;
55218;SDS011;41088;44.012;20.902;2022-08-19T05:44:55;10.60;;;5.05;;
55218;SDS011;41088;44.012;20.902;2022-08-19T05:47:24;12.05;;;4.40;;
55218;SDS011;41088;44.012;20.902;2022-08-19T05:50:01;10.95;;;4.53;;
55218;SDS011;41088;44.012;20.902;2022-08-19T05:52:28;11.43;;;4.63;;
55218;SDS011;41088;44.012;20.902;2022-08-19T05:54:56;8.65;;;4.40;;
55218;SDS011;41088;44.012;20.902;2022-08-19T05:57:31;10.05;;;4.53;;
55218;SDS011;41088;44.012;20.902;2022-08-19T05:59:57;9.23;;;4.30;;
55218;SDS011;41088;44.012;20.902;2022-08-19T06:02:29;9.27;;;4.50;;
55218;SDS011;41088;44.012;20.902;2022-08-19T06:05:03;8.38;;;4.40;;
55218;SDS011;41088;44.012;20.902;2022-08-19T06:07:34;11.80;;;4.40;;
55218;SDS011;41088;44.012;20.902;2022-08-19T06:10:02;7.80;;;4.22;;
55218;SDS011;41088;44.012;20.902;2022-08-19T06:12:33;8.98;;;4.25;;
55218;SDS011;41088;44.012;20.902;2022-08-19T06:15:05;8.40;;;4.25;;
55218;SDS011;41088;44.012;20.902;2022-08-19T06:17:32;11.98;;;4.30;;
55218;SDS011;41088;44.012;20.902;2022-08-19T06:19:59;8.10;;;3.70;;
55218;SDS011;41088;44.012;20.902;2022-08-19T06:22:26;11.57;;;4.40;;
55218;SDS011;41088;44.012;20.902;2022-08-19T06:24:53;8.45;;;4.50;;
55218;SDS011;41088;44.012;20.902;2022-08-19T06:27:19;10.15;;;4.10;;
55218;SDS011;41088;44.012;20.902;2022-08-19T06:29:46;10.20;;;4.25;;
55218;SDS011;41088;44.012;20.902;2022-08-19T06:32:13;9.68;;;4.03;;
55218;SDS011;41088;44.012;20.902;2022-08-19T06:34:41;6.63;;;3.83;;
55218;SDS011;41088;44.012;20.902;2022-08-19T06:37:09;7.82;;;4.00;;
55218;SDS011;41088;44.012;20.902;2022-08-19T06:39:38;7.60;;;3.72;;
55218;SDS011;41088;44.012;20.902;2022-08-19T06:42:22;6.88;;;3.90;;
55218;SDS011;41088;44.012;20.902;2022-08-19T06:44:48;10.35;;;3.83;;
55218;SDS011;41088;44.012;20.902;2022-08-19T06:47:19;6.88;;;3.83;;
55218;SDS011;41088;44.012;20.902;2022-08-19T06:49:46;9.65;;;3.97;;
55218;SDS011;41088;44.012;20.902;2022-08-19T06:52:15;9.65;;;4.22;;
55218;SDS011;41088;44.012;20.902;2022-08-19T06:54:41;10.48;;;4.00;;
55218;SDS011;41088;44.012;20.902;2022-08-19T06:57:15;13.75;;;4.20;;
55218;SDS011;41088;44.012;20.902;2022-08-19T06:59:40;7.78;;;3.85;;
55218;SDS011;41088;44.012;20.902;2022-08-19T07:02:06;9.25;;;4.22;;
55218;SDS011;41088;44.012;20.902;2022-08-19T07:04:34;12.35;;;4.30;;
55218;SDS011;41088;44.012;20.902;2022-08-19T07:07:03;12.45;;;4.72;;
55218;SDS011;41088;44.012;20.902;2022-08-19T07:09:33;11.63;;;4.30;;
55218;SDS011;41088;44.012;20.902;2022-08-19T07:11:59;6.47;;;3.83;;
55218;SDS011;41088;44.012;20.902;2022-08-19T07:14:26;13.85;;;6.07;;
55218;SDS011;41088;44.012;20.902;2022-08-19T07:16:54;7.60;;;4.38;;
55218;SDS011;41088;44.012;20.902;2022-08-19T07:19:22;10.45;;;4.65;;
55218;SDS011;41088;44.012;20.902;2022-08-19T07:21:49;10.25;;;4.60;;
55218;SDS011;41088;44.012;20.902;2022-08-19T07:24:19;11.52;;;4.78;;
55218;SDS011;41088;44.012;20.902;2022-08-19T07:26:49;9.88;;;4.60;;
55218;SDS011;41088;44.012;20.902;2022-08-19T07:29:16;8.48;;;4.80;;
55218;SDS011;41088;44.012;20.902;2022-08-19T07:31:43;10.20;;;4.10;;
55218;SDS011;41088;44.012;20.902;2022-08-19T07:34:09;12.00;;;4.50;;
55218;SDS011;41088;44.012;20.902;2022-08-19T07:36:39;6.97;;;4.03;;
55218;SDS011;41088;44.012;20.902;2022-08-19T07:39:08;7.53;;;4.13;;
55218;SDS011;41088;44.012;20.902;2022-08-19T07:41:37;9.75;;;4.10;;
55218;SDS011;41088;44.012;20.902;2022-08-19T07:44:04;10.15;;;4.03;;
55218;SDS011;41088;44.012;20.902;2022-08-19T07:46:36;12.43;;;4.45;;
55218;SDS011;41088;44.012;20.902;2022-08-19T07:49:05;7.55;;;4.03;;
55218;SDS011;41088;44.012;20.902;2022-08-19T07:51:32;7.85;;;3.97;;
55218;SDS011;41088;44.012;20.902;2022-08-19T07:53:58;10.48;;;3.90;;
55218;SDS011;41088;44.012;20.902;2022-08-19T07:56:25;8.18;;;3.80;;
55218;SDS011;41088;44.012;20.902;2022-08-19T07:58:51;7.57;;;4.18;;
55218;SDS011;41088;44.012;20.902;2022-08-19T08:01:20;9.98;;;4.10;;
55218;SDS011;41088;44.012;20.902;2022-08-19T08:03:49;6.20;;;3.70;;
55218;SDS011;41088;44.012;20.902;2022-08-19T08:06:34;8.25;;;3.95;;
55218;SDS011;41088;44.012;20.902;2022-08-19T08:09:21;9.98;;;3.88;;
55218;SDS011;41088;44.012;20.902;2022-08-19T08:11:59;7.15;;;3.88;;
55218;SDS011;41088;44.012;20.902;2022-08-19T08:14:33;7.03;;;3.85;;
55218;SDS011;41088;44.012;20.902;2022-08-19T08:17:11;6.40;;;3.80;;
55218;SDS011;41088;44.012;20.902;2022-08-19T08:19:38;10.30;;;3.60;;
55218;SDS011;41088;44.012;20.902;2022-08-19T08:22:09;10.20;;;3.78;;
55218;SDS011;41088;44.012;20.902;2022-08-19T08:25:32;8.77;;;3.75;;
55218;SDS011;41088;44.012;20.902;2022-08-19T08:27:51;8.50;;;4.00;;
55218;SDS011;41088;44.012;20.902;2022-08-19T08:30:24;5.38;;;3.70;;
55218;SDS011;41088;44.012;20.902;2022-08-19T08:32:52;10.48;;;4.32;;
55218;SDS011;41088;44.012;20.902;2022-08-19T08:35:21;9.20;;;3.92;;
55218;SDS011;41088;44.012;20.902;2022-08-19T08:37:50;13.15;;;4.18;;
55218;SDS011;41088;44.012;20.902;2022-08-19T08:40:22;11.73;;;4.15;;
55218;SDS011;41088;44.012;20.902;2022-08-19T08:43:08;10.73;;;4.00;;
55218;SDS011;41088;44.012;20.902;2022-08-19T08:45:47;10.75;;;3.80;;
55218;SDS011;41088;44.012;20.902;2022-08-19T08:48:54;8.50;;;4.20;;
55218;SDS011;41088;44.012;20.902;2022-08-19T08:52:13;9.25;;;3.88;;
55218;SDS011;41088;44.012;20.902;2022-08-19T08:54:39;9.90;;;4.22;;
55218;SDS011;41088;44.012;20.902;2022-08-19T09:03:55;11.20;;;4.03;;
55218;SDS011;41088;44.012;20.902;2022-08-19T09:06:29;13.48;;;4.18;;
55218;SDS011;41088;44.012;20.902;2022-08-19T09:09:06;8.32;;;3.72;;
55218;SDS011;41088;44.012;20.902;2022-08-19T09:18:18;11.60;;;3.75;;
55218;SDS011;41088;44.012;20.902;2022-08-19T09:20:45;9.45;;;4.40;;
55218;SDS011;41088;44.012;20.902;2022-08-19T09:23:14;14.30;;;6.20;;
55218;SDS011;41088;44.012;20.902;2022-08-19T09:25:49;7.85;;;4.03;;
55218;SDS011;41088;44.012;20.902;2022-08-19T09:28:15;6.30;;;2.88;;
55218;SDS011;41088;44.012;20.902;2022-08-19T09:30:41;5.75;;;3.42;;
55218;SDS011;41088;44.012;20.902;2022-08-19T09:33:07;8.90;;;3.08;;
55218;SDS011;41088;44.012;20.902;2022-08-19T09:35:33;8.82;;;3.05;;
55218;SDS011;41088;44.012;20.902;2022-08-19T09:38:00;10.27;;;3.30;;
55218;SDS011;41088;44.012;20.902;2022-08-19T09:40:30;7.30;;;3.10;;
55218;SDS011;41088;44.012;20.902;2022-08-19T09:42:59;8.95;;;2.85;;
55218;SDS011;41088;44.012;20.902;2022-08-19T09:45:29;7.80;;;3.20;;
55218;SDS011;41088;44.012;20.902;2022-08-19T09:47:55;8.80;;;3.40;;
55218;SDS011;41088;44.012;20.902;2022-08-19T09:50:22;9.45;;;3.42;;
55218;SDS011;41088;44.012;20.902;2022-08-19T09:52:48;8.02;;;3.05;;
55218;SDS011;41088;44.012;20.902;2022-08-19T09:55:15;7.30;;;3.30;;
55218;SDS011;41088;44.012;20.902;2022-08-19T09:57:41;7.43;;;2.83;;
55218;SDS011;41088;44.012;20.902;2022-08-19T10:00:08;5.55;;;2.67;;
55218;SDS011;41088;44.012;20.902;2022-08-19T10:02:35;8.48;;;3.05;;
55218;SDS011;41088;44.012;20.902;2022-08-19T10:05:02;8.30;;;3.25;;
55218;SDS011;41088;44.012;20.902;2022-08-19T10:07:46;6.72;;;3.10;;
55218;SDS011;41088;44.012;20.902;2022-08-19T10:10:13;7.13;;;3.05;;
55218;SDS011;41088;44.012;20.902;2022-08-19T10:12:39;5.57;;;2.70;;
55218;SDS011;41088;44.012;20.902;2022-08-19T10:15:05;6.15;;;2.97;;
55218;SDS011;41088;44.012;20.902;2022-08-19T10:17:32;6.80;;;3.10;;
55218;SDS011;41088;44.012;20.902;2022-08-19T10:20:00;6.80;;;3.00;;
55218;SDS011;41088;44.012;20.902;2022-08-19T10:22:31;6.93;;;2.85;;
55218;SDS011;41088;44.012;20.902;2022-08-19T10:24:57;5.88;;;2.58;;
55218;SDS011;41088;44.012;20.902;2022-08-19T10:27:23;6.70;;;3.10;;
55218;SDS011;41088;44.012;20.902;2022-08-19T10:29:49;9.13;;;2.88;;
55218;SDS011;41088;44.012;20.902;2022-08-19T10:32:17;10.15;;;3.22;;
55218;SDS011;41088;44.012;20.902;2022-08-19T10:34:43;8.07;;;3.03;;
55218;SDS011;41088;44.012;20.902;2022-08-19T10:37:09;8.18;;;3.00;;
55218;SDS011;41088;44.012;20.902;2022-08-19T10:39:35;6.28;;;3.20;;
55218;SDS011;41088;44.012;20.902;2022-08-19T10:45:04;7.43;;;3.13;;
55218;SDS011;41088;44.012;20.902;2022-08-19T10:47:31;13.27;;;3.17;;
55218;SDS011;41088;44.012;20.902;2022-08-19T10:49:58;9.73;;;3.17;;
55218;SDS011;41088;44.012;20.902;2022-08-19T10:52:43;10.30;;;3.28;;
55218;SDS011;41088;44.012;20.902;2022-08-19T10:55:10;11.48;;;3.05;;
55218;SDS011;41088;44.012;20.902;2022-08-19T10:57:55;9.00;;;3.25;;
55218;SDS011;41088;44.012;20.902;2022-08-19T11:00:22;7.53;;;3.15;;
55218;SDS011;41088;44.012;20.902;2022-08-19T11:02:52;8.25;;;3.95;;
55218;SDS011;41088;44.012;20.902;2022-08-19T11:05:18;9.98;;;3.30;;
55218;SDS011;41088;44.012;20.902;2022-08-19T11:11:09;7.45;;;3.47;;
55218;SDS011;41088;44.012;20.902;2022-08-19T11:13:36;6.53;;;3.20;;
55218;SDS011;41088;44.012;20.902;2022-08-19T11:16:05;9.77;;;3.30;;
55218;SDS011;41088;44.012;20.902;2022-08-19T11:18:37;6.07;;;3.25;;
55218;SDS011;41088;44.012;20.902;2022-08-19T11:21:07;8.90;;;3.45;;
55218;SDS011;41088;44.012;20.902;2022-08-19T11:23:34;7.50;;;3.00;;
55218;SDS011;41088;44.012;20.902;2022-08-19T11:26:00;10.00;;;3.13;;
55218;SDS011;41088;44.012;20.902;2022-08-19T11:28:26;8.63;;;3.38;;
55218;SDS011;41088;44.012;20.902;2022-08-19T11:30:53;6.10;;;2.97;;
55218;SDS011;41088;44.012;20.902;2022-08-19T11:33:19;9.18;;;3.25;;
55218;SDS011;41088;44.012;20.902;2022-08-19T11:35:46;10.52;;;4.72;;
55218;SDS011;41088;44.012;20.902;2022-08-19T11:38:12;6.25;;;3.03;;
55218;SDS011;41088;44.012;20.902;2022-08-19T11:40:39;11.50;;;3.45;;
55218;SDS011;41088;44.012;20.902;2022-08-19T11:43:07;9.27;;;3.17;;
55218;SDS011;41088;44.012;20.902;2022-08-19T11:45:34;8.32;;;3.20;;
55218;SDS011;41088;44.012;20.902;2022-08-19T11:48:00;9.35;;;3.45;;
55218;SDS011;41088;44.012;20.902;2022-08-19T11:50:27;7.63;;;3.17;;
55218;SDS011;41088;44.012;20.902;2022-08-19T11:52:55;9.70;;;3.30;;
55218;SDS011;41088;44.012;20.902;2022-08-19T11:55:22;6.85;;;3.05;;
55218;SDS011;41088;44.012;20.902;2022-08-19T11:57:49;8.45;;;3.20;;
55218;SDS011;41088;44.012;20.902;2022-08-19T12:00:15;10.88;;;3.42;;
55218;SDS011;41088;44.012;20.902;2022-08-19T12:02:41;8.55;;;3.17;;
55218;SDS011;41088;44.012;20.902;2022-08-19T12:05:08;12.18;;;3.40;;
55218;SDS011;41088;44.012;20.902;2022-08-19T12:07:34;9.95;;;3.17;;
55218;SDS011;41088;44.012;20.902;2022-08-19T12:10:00;10.13;;;2.92;;
55218;SDS011;41088;44.012;20.902;2022-08-19T12:12:27;6.43;;;3.20;;
55218;SDS011;41088;44.012;20.902;2022-08-19T12:14:53;9.63;;;3.35;;
55218;SDS011;41088;44.012;20.902;2022-08-19T12:20:11;8.63;;;3.30;;
55218;SDS011;41088;44.012;20.902;2022-08-19T12:22:39;14.23;;;3.70;;
55218;SDS011;41088;44.012;20.902;2022-08-19T12:25:09;12.57;;;3.80;;
55218;SDS011;41088;44.012;20.902;2022-08-19T12:27:36;9.68;;;3.35;;
55218;SDS011;41088;44.012;20.902;2022-08-19T12:30:04;10.07;;;3.30;;
55218;SDS011;41088;44.012;20.902;2022-08-19T12:32:33;7.60;;;3.70;;
55218;SDS011;41088;44.012;20.902;2022-08-19T12:34:59;11.05;;;3.35;;
55218;SDS011;41088;44.012;20.902;2022-08-19T12:37:29;10.70;;;3.40;;
55218;SDS011;41088;44.012;20.902;2022-08-19T12:39:59;8.93;;;3.33;;
55218;SDS011;41088;44.012;20.902;2022-08-19T12:42:25;9.27;;;3.40;;
55218;SDS011;41088;44.012;20.902;2022-08-19T12:44:51;14.27;;;3.83;;
55218;SDS011;41088;44.012;20.902;2022-08-19T12:47:17;13.68;;;3.70;;
55218;SDS011;41088;44.012;20.902;2022-08-19T12:49:43;9.25;;;3.70;;
55218;SDS011;41088;44.012;20.902;2022-08-19T12:52:12;13.73;;;4.90;;
55218;SDS011;41088;44.012;20.902;2022-08-19T12:54:46;15.95;;;6.93;;
55218;SDS011;41088;44.012;20.902;2022-08-19T12:57:16;10.55;;;4.07;;
55218;SDS011;41088;44.012;20.902;2022-08-19T12:59:41;15.10;;;3.83;;
55218;SDS011;41088;44.012;20.902;2022-08-19T13:02:11;11.35;;;3.50;;
55218;SDS011;41088;44.012;20.902;2022-08-19T13:04:37;9.60;;;3.30;;
55218;SDS011;41088;44.012;20.902;2022-08-19T13:07:06;8.25;;;3.35;;
55218;SDS011;41088;44.012;20.902;2022-08-19T13:12:30;11.25;;;3.40;;
55218;SDS011;41088;44.012;20.902;2022-08-19T13:31:38;11.90;;;3.10;;
55218;SDS011;41088;44.012;20.902;2022-08-19T13:37:28;15.07;;;3.70;;
55218;SDS011;41088;44.012;20.902;2022-08-19T13:40:27;15.02;;;3.45;;
55218;SDS011;41088;44.012;20.902;2022-08-19T13:53:07;14.05;;;3.80;;
55218;SDS011;41088;44.012;20.902;2022-08-19T13:55:43;9.95;;;3.40;;
55218;SDS011;41088;44.012;20.902;2022-08-19T13:58:10;9.82;;;3.35;;
55218;SDS011;41088;44.012;20.902;2022-08-19T14:00:38;14.30;;;4.10;;
55218;SDS011;41088;44.012;20.902;2022-08-19T14:03:09;12.35;;;3.80;;
55218;SDS011;41088;44.012;20.902;2022-08-19T14:05:36;18.67;;;3.85;;
55218;SDS011;41088;44.012;20.902;2022-08-19T14:08:02;14.02;;;3.25;;
55218;SDS011;41088;44.012;20.902;2022-08-19T14:10:28;11.10;;;4.10;;
55218;SDS011;41088;44.012;20.902;2022-08-19T14:12:57;18.02;;;3.80;;
55218;SDS011;41088;44.012;20.902;2022-08-19T14:15:34;13.85;;;3.60;;
55218;SDS011;41088;44.012;20.902;2022-08-19T14:18:09;12.40;;;3.95;;
55218;SDS011;41088;44.012;20.902;2022-08-19T14:20:35;15.85;;;3.40;;
55218;SDS011;41088;44.012;20.902;2022-08-19T14:23:01;16.10;;;4.00;;
55218;SDS011;41088;44.012;20.902;2022-08-19T14:25:28;15.48;;;3.60;;
55218;SDS011;41088;44.012;20.902;2022-08-19T14:27:55;14.38;;;3.60;;
55218;SDS011;41088;44.012;20.902;2022-08-19T14:30:27;10.57;;;3.40;;
55218;SDS011;41088;44.012;20.902;2022-08-19T14:32:55;15.45;;;3.88;;
55218;SDS011;41088;44.012;20.902;2022-08-19T14:35:23;13.35;;;4.40;;
55218;SDS011;41088;44.012;20.902;2022-08-19T14:37:54;14.35;;;3.45;;
55218;SDS011;41088;44.012;20.902;2022-08-19T14:40:21;13.93;;;3.50;;
55218;SDS011;41088;44.012;20.902;2022-08-19T14:42:52;13.13;;;4.13;;
55218;SDS011;41088;44.012;20.902;2022-08-19T14:45:25;14.38;;;3.50;;
55218;SDS011;41088;44.012;20.902;2022-08-19T14:47:53;16.98;;;4.07;;
55218;SDS011;41088;44.012;20.902;2022-08-19T14:50:19;11.50;;;3.38;;
55218;SDS011;41088;44.012;20.902;2022-08-19T14:52:47;11.57;;;3.30;;
55218;SDS011;41088;44.012;20.902;2022-08-19T14:55:14;16.10;;;3.50;;
55218;SDS011;41088;44.012;20.902;2022-08-19T14:57:42;10.40;;;3.58;;
55218;SDS011;41088;44.012;20.902;2022-08-19T15:00:09;11.57;;;3.42;;
55218;SDS011;41088;44.012;20.902;2022-08-19T15:02:39;12.15;;;4.60;;
55218;SDS011;41088;44.012;20.902;2022-08-19T15:05:05;14.90;;;4.95;;
55218;SDS011;41088;44.012;20.902;2022-08-19T15:07:32;15.05;;;5.28;;
55218;SDS011;41088;44.012;20.902;2022-08-19T15:09:58;17.35;;;4.70;;
55218;SDS011;41088;44.012;20.902;2022-08-19T15:12:24;14.15;;;4.25;;
55218;SDS011;41088;44.012;20.902;2022-08-19T15:14:50;15.15;;;4.43;;
55218;SDS011;41088;44.012;20.902;2022-08-19T15:17:17;12.38;;;3.80;;
55218;SDS011;41088;44.012;20.902;2022-08-19T15:19:44;16.27;;;4.30;;
55218;SDS011;41088;44.012;20.902;2022-08-19T15:22:10;13.02;;;4.15;;
55218;SDS011;41088;44.012;20.902;2022-08-19T15:24:37;14.45;;;4.03;;
55218;SDS011;41088;44.012;20.902;2022-08-19T15:27:03;17.73;;;4.47;;
55218;SDS011;41088;44.012;20.902;2022-08-19T15:29:30;15.07;;;4.10;;
55218;SDS011;41088;44.012;20.902;2022-08-19T15:31:57;13.57;;;4.70;;
55218;SDS011;41088;44.012;20.902;2022-08-19T15:34:24;19.20;;;4.20;;
55218;SDS011;41088;44.012;20.902;2022-08-19T15:36:51;15.73;;;4.38;;
55218;SDS011;41088;44.012;20.902;2022-08-19T15:39:17;17.35;;;4.30;;
55218;SDS011;41088;44.012;20.902;2022-08-19T15:41:44;13.02;;;4.10;;
55218;SDS011;41088;44.012;20.902;2022-08-19T15:44:15;12.55;;;4.18;;